createdAt,value
2022-11-30T00:01:25.276Z,56.77
2022-11-30T00:03:27.043Z,65.43
2022-11-30T00:05:28.818Z,59.83
2022-11-30T00:07:30.654Z,47.80
2022-11-30T00:09:32.371Z,76.60
2022-11-30T00:11:34.146Z,62.43
2022-11-30T00:13:35.918Z,60.23
2022-11-30T00:15:38.293Z,70.23
2022-11-30T00:17:47.333Z,62.87
2022-11-30T00:19:49.252Z,47.90
2022-11-30T00:21:50.936Z,68.77
2022-11-30T00:23:52.582Z,75.70
2022-11-30T00:25:54.311Z,57.23
2022-11-30T00:27:56.206Z,70.57
2022-11-30T00:29:58.956Z,72.93
2022-11-30T00:32:00.711Z,65.73
2022-11-30T00:34:02.374Z,52.87
2022-11-30T00:36:07.025Z,52.20
2022-11-30T00:38:08.732Z,53.00
2022-11-30T00:40:10.812Z,57.33
2022-11-30T00:42:12.792Z,57.57
2022-11-30T00:44:14.431Z,65.93
2022-11-30T00:46:16.256Z,56.07
2022-11-30T00:48:18.147Z,82.40
2022-11-30T00:50:19.813Z,70.87
2022-11-30T00:52:21.667Z,46.60
2022-11-30T00:54:23.345Z,56.30
2022-11-30T00:56:25.096Z,46.77
2022-11-30T00:58:26.816Z,63.97
2022-11-30T01:00:28.913Z,43.83
2022-11-30T01:02:30.673Z,49.23
2022-11-30T01:04:32.559Z,46.13
2022-11-30T01:06:34.174Z,46.50
2022-11-30T01:08:36.336Z,50.47
2022-11-30T01:10:40.796Z,44.93
2022-11-30T01:12:42.563Z,56.77
2022-11-30T01:14:44.591Z,47.83
2022-11-30T01:16:46.485Z,42.33
2022-11-30T01:18:49.199Z,66.10
2022-11-30T01:20:50.853Z,51.90
2022-11-30T01:22:52.590Z,43.43
2022-11-30T01:24:54.308Z,54.57
2022-11-30T01:26:55.988Z,42.13
2022-11-30T01:28:57.640Z,48.60
2022-11-30T01:31:05.021Z,49.73
2022-11-30T01:33:06.779Z,38.93
2022-11-30T01:35:08.983Z,42.67
2022-11-30T01:37:10.752Z,39.07
2022-11-30T01:39:12.445Z,32.93
2022-11-30T01:41:18.106Z,48.73
2022-11-30T01:43:20.439Z,43.77
2022-11-30T01:45:22.091Z,35.80
2022-11-30T01:47:37.560Z,51.27
2022-11-30T01:49:51.572Z,31.23
2022-11-30T01:52:00.535Z,30.13
2022-11-30T01:54:05.612Z,29.97
2022-11-30T01:56:07.664Z,26.30
2022-11-30T01:58:12.210Z,32.60
2022-11-30T02:00:16.088Z,36.07
2022-11-30T02:02:22.838Z,38.53
2022-11-30T02:04:28.866Z,27.90
2022-11-30T02:06:30.784Z,31.13
2022-11-30T02:08:33.258Z,31.43
2022-11-30T02:10:37.766Z,29.80
2022-11-30T02:13:13.259Z,33.53
2022-11-30T02:15:22.863Z,30.27
2022-11-30T02:17:47.265Z,31.00
2022-11-30T02:20:10.469Z,26.60
2022-11-30T02:22:34.122Z,40.33
2022-11-30T02:24:41.675Z,35.60
2022-11-30T02:27:08.538Z,35.30
2022-11-30T02:29:21.498Z,37.93
2022-11-30T02:31:31.577Z,50.50
2022-11-30T02:33:34.969Z,43.63
2022-11-30T02:35:40.543Z,34.20
2022-11-30T02:37:43.293Z,41.33
2022-11-30T02:39:45.093Z,29.80
2022-11-30T02:41:46.842Z,41.37
2022-11-30T02:43:49.086Z,43.53
2022-11-30T02:46:19.249Z,37.20
2022-11-30T02:48:28.193Z,41.07
2022-11-30T02:50:35.409Z,36.93
2022-11-30T02:52:37.290Z,48.20
2022-11-30T02:54:39.565Z,38.87
2022-11-30T02:56:41.292Z,56.13
2022-11-30T02:58:43.083Z,39.90
2022-11-30T03:00:45.600Z,45.37
2022-11-30T03:02:47.271Z,36.90
2022-11-30T03:04:49.245Z,26.10
2022-11-30T03:06:51.064Z,36.20
2022-11-30T03:08:52.921Z,26.67
2022-11-30T03:10:54.620Z,38.43
2022-11-30T03:13:00.279Z,30.10
2022-11-30T03:15:02.057Z,34.20
2022-11-30T03:17:04.172Z,27.33
2022-11-30T03:19:05.967Z,39.17
2022-11-30T03:21:09.261Z,36.10
2022-11-30T03:23:11.031Z,36.83
2022-11-30T03:25:12.686Z,42.37
2022-11-30T03:27:14.606Z,33.77
2022-11-30T03:29:16.301Z,24.40
2022-11-30T03:31:18.044Z,33.10
2022-11-30T03:33:20.111Z,24.73
2022-11-30T03:35:21.807Z,24.30
2022-11-30T03:37:23.589Z,25.27
2022-11-30T03:39:25.360Z,26.80
2022-11-30T03:41:27.213Z,23.13
2022-11-30T03:43:29.363Z,34.73
2022-11-30T03:45:31.087Z,26.07
2022-11-30T03:47:32.772Z,25.07
2022-11-30T03:49:34.467Z,29.30
2022-11-30T03:51:36.327Z,34.03
2022-11-30T03:53:38.911Z,37.37
2022-11-30T03:55:40.663Z,24.40
2022-11-30T03:57:42.372Z,27.83
2022-11-30T03:59:44.127Z,27.67
2022-11-30T04:01:45.819Z,32.37
2022-11-30T04:03:47.880Z,24.37
2022-11-30T04:05:49.496Z,28.07
2022-11-30T04:07:51.215Z,32.50
2022-11-30T04:09:53.107Z,51.10
2022-11-30T04:11:54.957Z,34.73
2022-11-30T04:13:56.644Z,28.70
2022-11-30T04:15:58.735Z,40.93
2022-11-30T04:18:00.541Z,43.70
2022-11-30T04:20:02.880Z,34.30
2022-11-30T04:22:04.683Z,30.37
2022-11-30T04:24:07.015Z,29.30
2022-11-30T04:26:12.526Z,40.73
2022-11-30T04:28:15.348Z,47.53
2022-11-30T04:30:17.294Z,40.10
2022-11-30T04:32:18.928Z,46.33
2022-11-30T04:34:20.541Z,40.10
2022-11-30T04:36:22.437Z,41.40
2022-11-30T04:38:24.798Z,58.77
2022-11-30T04:40:26.593Z,38.27
2022-11-30T04:42:28.220Z,37.77
2022-11-30T04:44:29.914Z,31.53
2022-11-30T04:46:31.580Z,50.87
2022-11-30T04:48:33.452Z,30.00
2022-11-30T04:50:35.952Z,48.43
2022-11-30T04:52:37.676Z,49.73
2022-11-30T04:54:39.542Z,37.27
2022-11-30T04:56:41.233Z,54.73
2022-11-30T04:58:42.961Z,33.43
2022-11-30T05:00:44.630Z,33.40
2022-11-30T05:02:52.125Z,45.87
2022-11-30T05:04:54.347Z,80.23
2022-11-30T05:06:56.187Z,88.83
2022-11-30T05:08:57.959Z,60.10
2022-11-30T05:10:59.779Z,58.23
2022-11-30T05:13:01.502Z,35.80
2022-11-30T05:15:03.491Z,51.37
2022-11-30T05:17:05.141Z,44.67
2022-11-30T05:19:06.813Z,51.40
2022-11-30T05:21:08.481Z,42.43
2022-11-30T05:23:10.164Z,36.07
2022-11-30T05:25:11.859Z,44.43
2022-11-30T05:27:19.387Z,37.90
2022-11-30T05:29:24.008Z,41.97
2022-11-30T05:31:26.016Z,40.77
2022-11-30T05:33:27.867Z,63.87
2022-11-30T05:35:29.664Z,61.60
2022-11-30T05:37:31.400Z,50.47
2022-11-30T05:39:33.130Z,31.37
2022-11-30T05:41:34.896Z,39.00
2022-11-30T05:43:36.573Z,39.37
2022-11-30T05:45:38.464Z,57.57
2022-11-30T05:47:40.180Z,50.37
2022-11-30T05:49:41.819Z,39.77
2022-11-30T05:51:43.504Z,37.20
2022-11-30T05:53:46.164Z,39.40
2022-11-30T05:55:47.849Z,45.20
2022-11-30T05:57:49.678Z,35.43
2022-11-30T05:59:51.412Z,43.97
2022-11-30T06:01:53.282Z,39.00
2022-11-30T06:03:55.798Z,38.80
2022-11-30T06:05:57.479Z,44.40
2022-11-30T06:07:59.541Z,49.97
2022-11-30T06:10:01.339Z,38.93
2022-11-30T06:12:03.202Z,63.40
2022-11-30T06:14:04.904Z,42.27
2022-11-30T06:16:07.319Z,47.50
2022-11-30T06:18:11.912Z,50.90
2022-11-30T06:20:14.135Z,46.67
2022-11-30T06:22:15.909Z,77.00
2022-11-30T06:24:17.737Z,53.00
2022-11-30T06:26:19.555Z,63.60
2022-11-30T06:28:21.251Z,59.40
2022-11-30T06:30:23.136Z,57.50
2022-11-30T06:32:24.858Z,62.57
2022-11-30T06:34:26.504Z,57.73
2022-11-30T06:36:34.233Z,65.90
2022-11-30T06:38:37.895Z,60.80
2022-11-30T06:40:39.706Z,74.40
2022-11-30T06:42:41.396Z,60.33
2022-11-30T06:44:43.168Z,69.07
2022-11-30T06:46:44.879Z,74.07
2022-11-30T06:48:49.817Z,77.03
2022-11-30T06:50:51.515Z,58.90
2022-11-30T06:52:53.588Z,59.03
2022-11-30T06:54:55.230Z,82.40
2022-11-30T06:56:57.949Z,55.47
2022-11-30T06:58:59.626Z,65.13
2022-11-30T07:01:01.392Z,89.43
2022-11-30T07:03:04.145Z,62.97
2022-11-30T07:05:06.223Z,64.93
2022-11-30T07:07:08.173Z,67.17
2022-11-30T07:09:11.012Z,69.90
2022-11-30T07:11:13.067Z,80.50
2022-11-30T07:13:17.581Z,73.90
2022-11-30T07:15:19.273Z,86.40
2022-11-30T07:17:20.997Z,68.70
2022-11-30T07:19:23.115Z,69.47
2022-11-30T07:21:24.777Z,72.90
2022-11-30T07:23:45.261Z,62.13
2022-11-30T07:26:06.354Z,70.50
2022-11-30T07:28:08.927Z,57.30
2022-11-30T07:30:11.345Z,57.53
2022-11-30T07:32:13.012Z,62.70
2022-11-30T07:34:14.902Z,55.10
2022-11-30T07:36:18.621Z,53.40
2022-11-30T07:38:20.645Z,47.10
2022-11-30T07:40:22.296Z,48.03
2022-11-30T07:42:24.074Z,48.53
2022-11-30T07:44:26.050Z,40.13
2022-11-30T07:46:27.949Z,41.77
2022-11-30T07:48:30.381Z,42.40
2022-11-30T07:50:32.360Z,42.20
2022-11-30T07:52:34.236Z,40.17
2022-11-30T07:54:35.974Z,37.20
2022-11-30T07:56:37.650Z,35.50
2022-11-30T07:58:40.176Z,33.30
2022-11-30T08:00:41.830Z,39.80
2022-11-30T08:02:43.584Z,38.20
2022-11-30T08:04:45.846Z,30.53
2022-11-30T08:06:47.982Z,38.90
2022-11-30T08:08:51.667Z,39.87
2022-11-30T08:10:56.847Z,33.83
2022-11-30T08:12:58.600Z,35.93
2022-11-30T08:15:22.391Z,45.73
2022-11-30T08:17:21.963Z,38.23
2022-11-30T08:19:23.683Z,35.77
2022-11-30T08:21:25.982Z,33.60
2022-11-30T08:23:40.010Z,25.57
2022-11-30T08:25:41.733Z,38.63
2022-11-30T08:27:43.396Z,37.23
2022-11-30T08:29:45.148Z,36.63
2022-11-30T08:31:47.005Z,39.10
2022-11-30T08:33:49.151Z,40.00
2022-11-30T08:35:50.899Z,34.67
2022-11-30T08:37:52.537Z,34.80
2022-11-30T08:39:54.232Z,38.37
2022-11-30T08:41:55.877Z,36.50
2022-11-30T08:43:57.833Z,37.77
2022-11-30T08:45:59.786Z,39.80
2022-11-30T08:48:01.675Z,40.83
2022-11-30T08:50:03.586Z,36.87
2022-11-30T08:52:20.877Z,37.63
2022-11-30T08:54:22.795Z,36.50
2022-11-30T08:56:24.420Z,37.77
2022-11-30T08:58:27.549Z,32.83
2022-11-30T09:00:29.212Z,29.70
2022-11-30T09:02:31.134Z,34.13
2022-11-30T09:04:32.913Z,26.27
2022-11-30T09:06:34.590Z,31.37
2022-11-30T09:08:39.639Z,26.80
2022-11-30T09:10:42.697Z,25.03
2022-11-30T09:12:44.382Z,33.13
2022-11-30T09:14:53.979Z,35.43
2022-11-30T09:16:59.327Z,29.03
2022-11-30T09:19:01.412Z,33.40
2022-11-30T09:21:09.145Z,29.27
2022-11-30T09:23:10.759Z,29.27
2022-11-30T09:25:12.449Z,32.00
2022-11-30T09:27:14.126Z,30.80
2022-11-30T09:29:15.853Z,26.67
2022-11-30T09:31:20.235Z,28.57
2022-11-30T09:33:23.062Z,27.10
2022-11-30T09:35:24.688Z,33.47
2022-11-30T09:37:26.332Z,33.40
2022-11-30T09:39:27.980Z,30.17
2022-11-30T09:41:46.295Z,26.07
2022-11-30T09:43:59.326Z,25.50
2022-11-30T09:46:04.570Z,31.13
2022-11-30T09:48:21.560Z,35.43
2022-11-30T09:50:27.228Z,30.00
2022-11-30T09:52:43.180Z,28.37
2022-11-30T09:54:47.028Z,28.47
2022-11-30T09:56:49.859Z,27.93
2022-11-30T09:59:00.164Z,32.27
2022-11-30T10:01:06.702Z,24.07
2022-11-30T10:03:12.210Z,26.80
2022-11-30T10:05:16.444Z,28.03
2022-11-30T10:07:45.844Z,26.43
2022-11-30T10:12:42.477Z,25.00
2022-11-30T10:15:17.625Z,24.43
2022-11-30T10:17:40.898Z,27.20
2022-11-30T10:20:17.700Z,26.57
2022-11-30T10:23:05.874Z,26.80
2022-11-30T10:25:23.895Z,23.90
2022-11-30T10:27:42.549Z,26.77
2022-11-30T10:29:44.771Z,24.07
2022-11-30T10:31:51.336Z,27.80
2022-11-30T10:33:56.196Z,26.27
2022-11-30T10:36:04.640Z,25.60
2022-11-30T10:38:21.222Z,27.60
2022-11-30T10:40:45.222Z,27.07
2022-11-30T10:42:52.236Z,25.30
2022-11-30T10:45:17.804Z,21.87
2022-11-30T10:47:56.849Z,22.20
2022-11-30T10:49:58.501Z,23.63
2022-11-30T10:52:06.141Z,28.80
2022-11-30T10:54:16.732Z,28.33
2022-11-30T10:56:18.779Z,25.30
2022-11-30T10:58:29.001Z,31.00
2022-11-30T11:00:30.843Z,27.20
2022-11-30T11:02:45.864Z,27.20
2022-11-30T11:04:47.659Z,28.63
2022-11-30T11:06:53.790Z,33.13
2022-11-30T11:08:55.946Z,31.73
2022-11-30T11:10:58.704Z,31.53
2022-11-30T11:13:00.556Z,32.87
2022-11-30T11:15:17.050Z,29.73
2022-11-30T11:17:18.845Z,29.57
2022-11-30T11:19:35.713Z,30.50
2022-11-30T11:21:37.427Z,26.70
2022-11-30T11:23:44.484Z,26.67
2022-11-30T11:25:50.575Z,29.30
2022-11-30T11:27:54.570Z,25.73
2022-11-30T11:30:27.449Z,33.67
2022-11-30T11:32:30.449Z,26.43
2022-11-30T11:34:34.729Z,27.37
2022-11-30T11:36:36.900Z,25.60
2022-11-30T11:38:48.351Z,24.67
2022-11-30T11:40:55.785Z,26.70
2022-11-30T11:42:58.333Z,27.00
2022-11-30T11:45:02.381Z,25.93
2022-11-30T11:47:08.226Z,25.33
2022-11-30T11:49:23.054Z,27.20
2022-11-30T11:51:40.739Z,25.70
2022-11-30T11:54:06.031Z,24.17
2022-11-30T11:56:32.073Z,22.10
2022-11-30T11:58:57.774Z,27.87
2022-11-30T12:01:31.649Z,24.40
2022-11-30T12:04:13.180Z,25.40
2022-11-30T12:06:18.657Z,26.13
2022-11-30T12:08:35.414Z,23.77
2022-11-30T12:10:52.330Z,23.13
2022-11-30T12:12:55.570Z,25.47
2022-11-30T12:14:57.949Z,25.53
2022-11-30T12:17:22.502Z,24.53
2022-11-30T12:19:36.840Z,22.60
2022-11-30T12:21:47.565Z,23.13
2022-11-30T12:24:10.645Z,22.60
2022-11-30T12:26:20.132Z,24.87
2022-11-30T12:28:45.707Z,22.57
2022-11-30T12:31:10.685Z,20.20
2022-11-30T12:33:18.425Z,23.93
2022-11-30T12:35:35.465Z,22.53
2022-11-30T12:37:49.815Z,22.93
2022-11-30T12:40:03.481Z,23.83
2022-11-30T12:42:12.759Z,23.53
2022-11-30T12:44:28.604Z,21.07
2022-11-30T12:47:00.453Z,21.63
2022-11-30T12:49:22.400Z,26.30
2022-11-30T12:51:30.317Z,20.17
2022-11-30T12:54:09.012Z,22.30
2022-11-30T12:56:13.409Z,18.30
2022-11-30T12:58:22.914Z,22.87
2022-11-30T13:00:29.298Z,18.23
2022-11-30T13:02:40.232Z,21.20
2022-11-30T13:04:58.245Z,18.97
2022-11-30T13:07:08.678Z,24.77
2022-11-30T13:09:30.395Z,19.03
2022-11-30T13:11:40.651Z,21.77
2022-11-30T13:13:51.347Z,21.27
2022-11-30T13:15:53.656Z,24.17
2022-11-30T13:17:55.937Z,18.90
2022-11-30T13:20:08.101Z,24.80
2022-11-30T13:22:28.973Z,22.47
2022-11-30T13:24:40.268Z,23.13
2022-11-30T13:27:06.059Z,23.97
2022-11-30T13:29:37.103Z,24.00
2022-11-30T13:32:05.433Z,29.73
2022-11-30T13:34:27.134Z,25.90
2022-11-30T13:36:45.443Z,23.83
2022-11-30T13:38:47.561Z,30.70
2022-11-30T13:41:00.989Z,29.33
2022-11-30T13:43:02.704Z,30.50
2022-11-30T13:45:13.256Z,28.90
2022-11-30T13:47:29.380Z,30.13
2022-11-30T13:49:35.884Z,28.13
2022-11-30T13:51:40.200Z,31.80
2022-11-30T13:53:42.002Z,32.67
2022-11-30T13:55:49.376Z,30.60
2022-11-30T13:57:54.195Z,30.90
2022-11-30T14:00:30.850Z,33.33
2022-11-30T14:02:32.859Z,30.73
2022-11-30T14:04:43.751Z,30.73
2022-11-30T14:06:51.616Z,27.00
2022-11-30T14:08:53.393Z,34.17
2022-11-30T14:11:33.173Z,29.53
2022-11-30T14:13:35.033Z,31.73
2022-11-30T14:15:39.542Z,31.60
2022-11-30T14:17:41.505Z,31.00
2022-11-30T14:19:49.737Z,32.00
2022-11-30T14:21:52.105Z,28.33
2022-11-30T14:23:58.944Z,35.60
2022-11-30T14:26:11.313Z,31.37
2022-11-30T14:28:17.526Z,32.00
2022-11-30T14:30:22.089Z,35.70
2022-11-30T14:32:42.386Z,32.87
2022-11-30T14:34:48.384Z,33.57
2022-11-30T14:36:58.152Z,34.53
2022-11-30T14:38:59.999Z,41.77
2022-11-30T14:41:01.687Z,43.83
2022-11-30T14:43:04.118Z,36.37
2022-11-30T14:45:43.864Z,33.40
2022-11-30T14:47:48.236Z,34.40
2022-11-30T14:49:52.849Z,35.30
2022-11-30T14:52:02.402Z,35.50
2022-11-30T14:55:02.663Z,36.37
2022-11-30T14:57:30.637Z,33.07
2022-11-30T14:59:51.702Z,33.97
2022-11-30T15:01:58.960Z,32.57
2022-11-30T15:04:16.275Z,38.53
2022-11-30T15:06:19.979Z,41.10
2022-11-30T15:08:22.601Z,39.20
2022-11-30T15:10:29.807Z,42.17
2022-11-30T15:12:33.061Z,39.67
2022-11-30T15:14:34.924Z,36.03
2022-11-30T15:16:37.393Z,37.47
2022-11-30T15:18:39.372Z,39.83
2022-11-30T15:20:55.838Z,40.93
2022-11-30T15:23:00.152Z,43.43
2022-11-30T15:25:02.027Z,40.17
2022-11-30T15:27:15.843Z,50.97
2022-11-30T15:29:37.512Z,43.40
2022-11-30T15:31:44.940Z,40.00
2022-11-30T15:33:48.798Z,33.83
2022-11-30T15:38:24.324Z,40.90
2022-11-30T15:40:34.454Z,25.50
2022-11-30T15:42:41.571Z,29.50
2022-11-30T15:44:46.586Z,24.23
2022-11-30T15:47:00.708Z,28.33
2022-11-30T15:49:38.251Z,24.27
2022-11-30T15:51:42.204Z,21.60
2022-11-30T15:53:51.559Z,27.97
2022-11-30T15:56:05.556Z,32.30
2022-11-30T15:58:35.068Z,35.90
2022-11-30T16:00:36.812Z,37.13
2022-11-30T16:02:38.612Z,42.60
2022-11-30T16:04:58.919Z,35.03
2022-11-30T16:07:00.671Z,42.80
2022-11-30T16:09:07.096Z,44.57
2022-11-30T16:11:10.725Z,46.13
2022-11-30T16:13:15.019Z,38.57
2022-11-30T16:15:21.244Z,32.77
2022-11-30T16:17:22.992Z,34.60
2022-11-30T16:19:24.832Z,28.67
2022-11-30T16:21:26.776Z,37.93
2022-11-30T16:23:28.727Z,30.97
2022-11-30T16:25:30.356Z,30.33
2022-11-30T16:27:32.023Z,26.87
2022-11-30T16:29:33.686Z,27.10
2022-11-30T16:31:35.507Z,29.43
2022-11-30T16:33:37.300Z,33.77
2022-11-30T16:35:57.121Z,26.33
2022-11-30T16:37:58.903Z,29.17
2022-11-30T16:40:00.585Z,24.87
2022-11-30T16:42:02.469Z,24.73
2022-11-30T16:44:13.413Z,23.73
2022-11-30T16:46:20.727Z,27.63
2022-11-30T16:48:22.679Z,20.47
2022-11-30T16:50:24.377Z,25.73
2022-11-30T16:52:26.045Z,27.93
2022-11-30T16:54:27.769Z,26.33
2022-11-30T16:56:29.636Z,30.97
2022-11-30T16:58:31.302Z,21.97
2022-11-30T17:00:34.003Z,20.07
2022-11-30T17:02:38.517Z,25.40
2022-11-30T17:04:40.741Z,21.80
2022-11-30T17:06:45.714Z,25.27
2022-11-30T17:08:50.506Z,24.33
2022-11-30T17:10:54.155Z,20.70
2022-11-30T17:12:55.865Z,21.43
2022-11-30T17:14:57.561Z,27.37
2022-11-30T17:17:01.008Z,26.27
2022-11-30T17:19:02.871Z,24.17
2022-11-30T17:21:04.721Z,24.63
2022-11-30T17:23:06.963Z,24.73
2022-11-30T17:25:14.135Z,22.13
2022-11-30T17:27:15.832Z,22.20
2022-11-30T17:29:17.569Z,26.00
2022-11-30T17:31:20.008Z,24.70
2022-11-30T17:33:21.831Z,21.47
2022-11-30T17:35:23.536Z,24.37
2022-11-30T17:37:26.491Z,24.23
2022-11-30T17:39:28.207Z,25.70
2022-11-30T17:41:29.962Z,26.97
2022-11-30T17:43:31.952Z,26.43
2022-11-30T17:45:33.903Z,24.17
2022-11-30T17:47:35.661Z,28.27
2022-11-30T17:49:37.507Z,22.70
2022-11-30T17:51:40.401Z,25.70
2022-11-30T17:53:43.020Z,21.30
2022-11-30T17:55:45.157Z,29.83
2022-11-30T17:57:46.801Z,24.87
2022-11-30T17:59:48.514Z,25.03
2022-11-30T18:01:51.121Z,22.70
2022-11-30T18:03:54.055Z,23.97
2022-11-30T18:06:00.556Z,27.00
2022-11-30T18:08:02.326Z,21.50
2022-11-30T18:10:04.249Z,22.40
2022-11-30T18:12:06.117Z,20.80
2022-11-30T18:14:07.831Z,20.43
2022-11-30T18:16:12.594Z,20.20
2022-11-30T18:18:14.583Z,22.10
2022-11-30T18:20:16.335Z,23.40
2022-11-30T18:22:18.128Z,25.67
2022-11-30T18:24:24.874Z,24.13
2022-11-30T18:26:27.486Z,22.17
2022-11-30T18:28:29.658Z,19.70
2022-11-30T18:30:31.448Z,17.80
2022-11-30T18:32:33.206Z,19.73
2022-11-30T18:34:34.936Z,19.43
2022-11-30T18:36:36.721Z,19.63
2022-11-30T18:38:39.000Z,20.60
2022-11-30T18:40:40.748Z,20.40
2022-11-30T18:42:42.486Z,18.63
2022-11-30T18:44:44.302Z,13.60
2022-11-30T18:46:45.975Z,19.70
2022-11-30T18:48:51.615Z,21.17
2022-11-30T18:50:53.287Z,21.40
2022-11-30T18:52:56.277Z,21.00
2022-11-30T18:54:57.963Z,20.07
2022-11-30T18:56:59.910Z,18.77
2022-11-30T18:59:07.787Z,19.90
2022-11-30T19:01:18.270Z,17.90
2022-11-30T19:03:20.048Z,17.97
2022-11-30T19:05:35.100Z,20.07
2022-11-30T19:07:40.651Z,17.93
2022-11-30T19:09:42.840Z,21.77
2022-11-30T19:11:44.684Z,21.63
2022-11-30T19:13:46.427Z,24.43
2022-11-30T19:15:48.176Z,19.20
2022-11-30T19:17:49.912Z,20.30
2022-11-30T19:19:51.778Z,22.90
2022-11-30T19:21:53.774Z,23.77
2022-11-30T19:23:57.018Z,22.40
2022-11-30T19:26:02.192Z,18.67
2022-11-30T19:28:04.123Z,24.17
2022-11-30T19:30:06.702Z,19.43
2022-11-30T19:32:08.526Z,21.43
2022-11-30T19:34:12.969Z,22.07
2022-11-30T19:36:20.756Z,19.10
2022-11-30T19:38:22.456Z,24.27
2022-11-30T19:40:24.079Z,22.20
2022-11-30T19:42:25.752Z,18.77
2022-11-30T19:44:27.541Z,21.80
2022-11-30T19:46:30.526Z,23.23
2022-11-30T19:48:33.040Z,25.43
2022-11-30T19:50:34.701Z,21.97
2022-11-30T19:52:36.583Z,23.27
2022-11-30T19:54:38.248Z,24.57
2022-11-30T19:56:41.832Z,23.93
2022-11-30T19:58:45.310Z,21.60
2022-11-30T20:00:47.481Z,21.70
2022-11-30T20:02:50.079Z,20.70
2022-11-30T20:04:52.380Z,23.17
2022-11-30T20:06:54.119Z,24.03
2022-11-30T20:08:55.989Z,22.60
2022-11-30T20:10:58.590Z,26.50
2022-11-30T20:13:00.460Z,23.67
2022-11-30T20:15:02.180Z,24.13
2022-11-30T20:17:03.958Z,23.97
2022-11-30T20:19:05.726Z,24.00
2022-11-30T20:21:16.653Z,30.10
2022-11-30T20:23:18.309Z,28.17
2022-11-30T20:25:21.453Z,30.33
2022-11-30T20:27:24.995Z,29.77
2022-11-30T20:29:26.995Z,28.27
2022-11-30T20:31:30.090Z,27.60
2022-11-30T20:33:31.789Z,28.33
2022-11-30T20:35:35.093Z,35.33
2022-11-30T20:37:37.242Z,33.57
2022-11-30T20:39:45.352Z,27.97
2022-11-30T20:41:47.955Z,34.60
2022-11-30T20:43:50.263Z,28.80
2022-11-30T20:45:52.565Z,35.37
2022-11-30T20:47:54.345Z,28.07
2022-11-30T20:49:56.020Z,34.13
2022-11-30T20:51:57.794Z,34.63
2022-11-30T20:54:01.433Z,33.17
2022-11-30T20:56:03.522Z,33.80
2022-11-30T20:58:05.188Z,34.87
2022-11-30T21:00:13.089Z,35.00
2022-11-30T21:02:15.260Z,34.70
2022-11-30T21:04:17.012Z,33.00
2022-11-30T21:06:18.811Z,33.20
2022-11-30T21:08:20.468Z,42.07
2022-11-30T21:10:22.279Z,35.47
2022-11-30T21:12:24.056Z,39.30
2022-11-30T21:14:25.776Z,37.50
2022-11-30T21:16:29.597Z,36.00
2022-11-30T21:18:31.592Z,36.83
2022-11-30T21:20:33.340Z,38.67
2022-11-30T21:22:34.968Z,34.63
2022-11-30T21:24:36.711Z,33.73
2022-11-30T21:26:40.320Z,33.87
2022-11-30T21:28:41.955Z,49.30
2022-11-30T21:30:43.659Z,35.23
2022-11-30T21:32:45.496Z,40.43
2022-11-30T21:34:47.425Z,35.40
2022-11-30T21:36:51.809Z,45.40
2022-11-30T21:39:04.565Z,41.57
2022-11-30T21:41:07.180Z,38.57
2022-11-30T21:43:09.114Z,39.93
2022-11-30T21:45:11.305Z,41.73
2022-11-30T21:47:14.457Z,44.33
2022-11-30T21:49:16.451Z,47.90
2022-11-30T21:51:20.815Z,46.47
2022-11-30T21:53:22.553Z,56.20
2022-11-30T21:55:24.184Z,52.43
2022-11-30T21:57:25.962Z,62.00
2022-11-30T21:59:27.724Z,52.93
2022-11-30T22:01:32.026Z,90.37
2022-11-30T22:03:33.889Z,60.50
2022-11-30T22:05:35.643Z,75.43
2022-11-30T22:07:37.374Z,64.33
2022-11-30T22:09:39.494Z,57.43
2022-11-30T22:11:42.878Z,33.13
2022-11-30T22:13:45.600Z,32.63
2022-11-30T22:15:47.320Z,34.93
2022-11-30T22:17:51.583Z,35.50
2022-11-30T22:19:53.265Z,33.43
2022-11-30T22:21:54.988Z,33.23
2022-11-30T22:24:05.426Z,35.30
2022-11-30T22:26:18.616Z,36.50
2022-11-30T22:28:20.349Z,40.27
2022-11-30T22:30:21.985Z,35.80
2022-11-30T22:32:23.714Z,41.73
2022-11-30T22:34:26.310Z,46.97
2022-11-30T22:36:30.663Z,33.90
2022-11-30T22:38:32.571Z,38.20
2022-11-30T22:40:34.302Z,39.07
2022-11-30T22:42:36.084Z,38.67
2022-11-30T22:44:37.754Z,38.90
2022-11-30T22:46:39.497Z,37.00
2022-11-30T22:48:41.787Z,41.30
2022-11-30T22:50:43.557Z,40.67
2022-11-30T22:53:02.501Z,42.30
2022-11-30T22:55:05.351Z,40.47
2022-11-30T22:57:07.217Z,39.87
2022-11-30T22:59:12.242Z,43.80
2022-11-30T23:01:19.525Z,42.17
2022-11-30T23:03:25.062Z,44.10
2022-11-30T23:05:26.891Z,43.90
2022-11-30T23:07:31.970Z,45.30
2022-11-30T23:09:34.111Z,40.60
2022-11-30T23:11:35.933Z,41.57
2022-11-30T23:13:39.510Z,43.17
2022-11-30T23:15:41.659Z,43.97
2022-11-30T23:17:43.453Z,42.37
2022-11-30T23:19:45.277Z,45.57
2022-11-30T23:21:48.659Z,53.00
2022-11-30T23:23:50.390Z,42.83
2022-11-30T23:25:52.163Z,41.70
2022-11-30T23:27:53.804Z,44.30
2022-11-30T23:29:55.632Z,39.00
2022-11-30T23:31:57.315Z,43.37
2022-11-30T23:33:59.088Z,43.40
2022-11-30T23:36:00.785Z,43.80
2022-11-30T23:38:02.537Z,36.97
2022-11-30T23:40:04.700Z,37.37
2022-11-30T23:42:06.374Z,42.37
2022-11-30T23:44:09.308Z,39.57
2022-11-30T23:46:11.929Z,41.00
2022-11-30T23:48:13.616Z,41.77
2022-11-30T23:50:15.303Z,37.37
2022-11-30T23:52:17.055Z,36.07
2022-11-30T23:54:18.795Z,37.40
2022-11-30T23:56:22.170Z,36.73
2022-11-30T23:58:24.386Z,31.10
